createdAt,value
2019-02-28T18:18:56.855Z,100730.27
2019-02-28T18:24:30.841Z,100741.50
2019-02-28T18:30:23.259Z,100741.61
2019-02-28T18:35:32.517Z,100740.36
2019-02-28T18:40:37.503Z,100740.88
2019-02-28T18:45:45.377Z,100736.41
2019-02-28T18:50:51.836Z,100744.34
2019-02-28T18:55:57.636Z,100745.50
2019-02-28T19:01:03.616Z,100748.73
2019-02-28T19:06:07.994Z,100745.55
2019-02-28T19:11:12.049Z,100743.45
2019-02-28T19:16:16.191Z,100746.00
2019-02-28T19:21:20.429Z,100760.84
2019-02-28T19:26:24.552Z,100761.31
2019-02-28T19:31:28.589Z,100757.97
2019-02-28T19:36:32.619Z,100760.36
2019-02-28T19:41:36.741Z,100756.61
2019-02-28T19:46:43.406Z,100767.23
2019-02-28T19:51:51.214Z,100771.50
2019-02-28T19:56:57.213Z,100776.56
2019-02-28T20:02:05.725Z,100788.20
2019-02-28T20:07:11.733Z,100784.60
2019-02-28T20:12:15.956Z,100780.41
2019-02-28T20:17:20.312Z,100792.24
2019-02-28T20:22:31.949Z,100791.95
2019-02-28T20:28:00.721Z,100796.39
2019-02-28T20:33:05.045Z,100786.19
2019-02-28T20:38:12.053Z,100793.48
2019-02-28T20:43:16.085Z,100798.16
2019-02-28T20:48:31.194Z,100804.38
2019-02-28T20:53:38.780Z,100802.16
2019-02-28T20:58:45.608Z,100805.53
2019-02-28T21:03:51.863Z,100823.26
2019-02-28T21:09:00.903Z,100818.43
2019-02-28T21:14:10.587Z,100814.03
2019-02-28T21:19:15.337Z,100820.31
2019-02-28T21:24:19.768Z,100812.89
2019-02-28T21:29:24.599Z,100806.95
2019-02-28T21:34:28.877Z,100801.55
2019-02-28T21:39:33.181Z,100808.67
2019-02-28T21:44:37.493Z,100806.86
2019-02-28T21:49:41.541Z,100808.92
2019-02-28T21:54:45.857Z,100804.74
2019-02-28T21:59:49.947Z,100797.91
2019-02-28T22:04:54.298Z,100796.23
2019-02-28T22:09:58.353Z,100795.39
2019-02-28T22:15:02.674Z,100786.70
2019-02-28T22:20:10.322Z,100792.59
2019-02-28T22:25:16.423Z,100791.44
2019-02-28T22:30:20.829Z,100787.75
2019-02-28T22:35:24.958Z,100786.91
2019-02-28T22:40:30.694Z,100789.69
2019-02-28T22:45:36.998Z,100779.41
2019-02-28T22:50:41.226Z,100782.90
2019-02-28T22:55:45.618Z,100785.58
2019-02-28T23:00:53.459Z,100790.77
2019-02-28T23:05:57.492Z,100788.30
2019-02-28T23:11:01.634Z,100781.66
2019-02-28T23:16:05.731Z,100782.27
2019-02-28T23:21:09.753Z,100781.47
2019-02-28T23:26:18.715Z,100770.68
2019-02-28T23:32:00.028Z,100761.95
2019-02-28T23:37:04.181Z,100758.30
2019-02-28T23:42:08.503Z,100755.31
2019-02-28T23:47:12.529Z,100759.20
2019-02-28T23:52:16.625Z,100756.95
2019-02-28T23:57:20.976Z,100747.82
